sensor_id;sensor_type;location;lat;lon;timestamp;P1;durP1;ratioP1;P2;durP2;ratioP2
5391;SDS011;2719;53.624;9.786;2023-12-22T00:01:34;30.03;;;3.37;;
5391;SDS011;2719;53.624;9.786;2023-12-22T00:04:00;44.43;;;5.00;;
5391;SDS011;2719;53.624;9.786;2023-12-22T00:06:28;37.00;;;3.20;;
5391;SDS011;2719;53.624;9.786;2023-12-22T00:08:55;25.83;;;4.30;;
5391;SDS011;2719;53.624;9.786;2023-12-22T00:11:21;29.57;;;3.40;;
5391;SDS011;2719;53.624;9.786;2023-12-22T00:13:48;32.03;;;3.53;;
5391;SDS011;2719;53.624;9.786;2023-12-22T00:16:15;18.43;;;4.47;;
5391;SDS011;2719;53.624;9.786;2023-12-22T00:18:41;28.23;;;3.07;;
5391;SDS011;2719;53.624;9.786;2023-12-22T00:21:09;23.33;;;3.43;;
5391;SDS011;2719;53.624;9.786;2023-12-22T00:23:37;16.90;;;3.60;;
5391;SDS011;2719;53.624;9.786;2023-12-22T00:26:04;20.53;;;2.67;;
5391;SDS011;2719;53.624;9.786;2023-12-22T00:28:31;23.57;;;3.40;;
5391;SDS011;2719;53.624;9.786;2023-12-22T00:30:58;31.80;;;3.17;;
5391;SDS011;2719;53.624;9.786;2023-12-22T00:33:25;21.30;;;3.73;;
5391;SDS011;2719;53.624;9.786;2023-12-22T00:35:52;19.40;;;3.33;;
5391;SDS011;2719;53.624;9.786;2023-12-22T00:38:18;23.93;;;3.30;;
5391;SDS011;2719;53.624;9.786;2023-12-22T00:40:47;28.67;;;3.00;;
5391;SDS011;2719;53.624;9.786;2023-12-22T00:43:13;21.40;;;2.60;;
5391;SDS011;2719;53.624;9.786;2023-12-22T00:45:40;14.53;;;2.63;;
5391;SDS011;2719;53.624;9.786;2023-12-22T00:48:06;14.97;;;2.50;;
5391;SDS011;2719;53.624;9.786;2023-12-22T00:50:33;29.73;;;3.10;;
5391;SDS011;2719;53.624;9.786;2023-12-22T00:53:00;15.60;;;1.97;;
5391;SDS011;2719;53.624;9.786;2023-12-22T00:55:27;29.40;;;4.07;;
5391;SDS011;2719;53.624;9.786;2023-12-22T00:57:53;20.33;;;2.97;;
5391;SDS011;2719;53.624;9.786;2023-12-22T01:00:20;25.60;;;3.30;;
5391;SDS011;2719;53.624;9.786;2023-12-22T01:02:47;16.40;;;1.93;;
5391;SDS011;2719;53.624;9.786;2023-12-22T01:05:14;11.00;;;1.90;;
5391;SDS011;2719;53.624;9.786;2023-12-22T01:07:41;13.43;;;1.60;;
5391;SDS011;2719;53.624;9.786;2023-12-22T01:10:08;6.27;;;0.70;;
5391;SDS011;2719;53.624;9.786;2023-12-22T01:12:35;14.47;;;1.17;;
5391;SDS011;2719;53.624;9.786;2023-12-22T01:15:03;14.03;;;1.50;;
5391;SDS011;2719;53.624;9.786;2023-12-22T01:17:30;10.73;;;1.63;;
5391;SDS011;2719;53.624;9.786;2023-12-22T01:19:57;6.93;;;0.97;;
5391;SDS011;2719;53.624;9.786;2023-12-22T01:22:24;11.00;;;1.30;;
5391;SDS011;2719;53.624;9.786;2023-12-22T01:24:50;10.03;;;1.27;;
5391;SDS011;2719;53.624;9.786;2023-12-22T01:27:17;5.40;;;0.60;;
5391;SDS011;2719;53.624;9.786;2023-12-22T01:29:44;8.57;;;1.03;;
5391;SDS011;2719;53.624;9.786;2023-12-22T01:32:12;13.10;;;1.40;;
5391;SDS011;2719;53.624;9.786;2023-12-22T01:34:39;7.70;;;0.77;;
5391;SDS011;2719;53.624;9.786;2023-12-22T01:37:06;4.60;;;0.60;;
5391;SDS011;2719;53.624;9.786;2023-12-22T01:39:32;8.53;;;0.60;;
5391;SDS011;2719;53.624;9.786;2023-12-22T01:41:59;12.40;;;1.13;;
5391;SDS011;2719;53.624;9.786;2023-12-22T01:44:25;3.87;;;0.70;;
5391;SDS011;2719;53.624;9.786;2023-12-22T01:46:52;3.87;;;0.60;;
5391;SDS011;2719;53.624;9.786;2023-12-22T01:49:20;4.43;;;0.50;;
5391;SDS011;2719;53.624;9.786;2023-12-22T01:51:48;7.30;;;0.70;;
5391;SDS011;2719;53.624;9.786;2023-12-22T01:54:15;3.63;;;0.70;;
5391;SDS011;2719;53.624;9.786;2023-12-22T01:56:42;7.20;;;0.70;;
5391;SDS011;2719;53.624;9.786;2023-12-22T01:59:09;5.53;;;0.80;;
5391;SDS011;2719;53.624;9.786;2023-12-22T02:01:36;4.30;;;0.60;;
5391;SDS011;2719;53.624;9.786;2023-12-22T02:04:03;9.47;;;0.90;;
5391;SDS011;2719;53.624;9.786;2023-12-22T02:06:32;5.13;;;0.70;;
5391;SDS011;2719;53.624;9.786;2023-12-22T02:09:01;4.73;;;0.87;;
5391;SDS011;2719;53.624;9.786;2023-12-22T02:11:29;6.80;;;0.87;;
5391;SDS011;2719;53.624;9.786;2023-12-22T02:13:55;16.23;;;1.00;;
5391;SDS011;2719;53.624;9.786;2023-12-22T02:16:25;5.03;;;0.90;;
5391;SDS011;2719;53.624;9.786;2023-12-22T02:18:57;8.47;;;1.80;;
5391;SDS011;2719;53.624;9.786;2023-12-22T02:21:30;4.93;;;0.70;;
5391;SDS011;2719;53.624;9.786;2023-12-22T02:23:58;2.57;;;0.50;;
5391;SDS011;2719;53.624;9.786;2023-12-22T02:26:27;6.70;;;0.80;;
5391;SDS011;2719;53.624;9.786;2023-12-22T02:28:58;7.13;;;0.80;;
5391;SDS011;2719;53.624;9.786;2023-12-22T02:31:27;12.87;;;1.30;;
5391;SDS011;2719;53.624;9.786;2023-12-22T02:34:01;12.93;;;1.10;;
5391;SDS011;2719;53.624;9.786;2023-12-22T02:36:32;13.07;;;1.67;;
5391;SDS011;2719;53.624;9.786;2023-12-22T02:39:03;13.67;;;1.47;;
5391;SDS011;2719;53.624;9.786;2023-12-22T02:41:31;8.00;;;1.37;;
5391;SDS011;2719;53.624;9.786;2023-12-22T02:43:58;9.30;;;0.70;;
5391;SDS011;2719;53.624;9.786;2023-12-22T02:46:25;9.43;;;1.27;;
5391;SDS011;2719;53.624;9.786;2023-12-22T02:48:52;5.90;;;0.70;;
5391;SDS011;2719;53.624;9.786;2023-12-22T02:51:18;7.80;;;0.70;;
5391;SDS011;2719;53.624;9.786;2023-12-22T02:53:45;4.50;;;0.40;;
5391;SDS011;2719;53.624;9.786;2023-12-22T02:56:13;6.17;;;0.60;;
5391;SDS011;2719;53.624;9.786;2023-12-22T02:58:39;9.20;;;0.70;;
5391;SDS011;2719;53.624;9.786;2023-12-22T03:01:06;2.77;;;0.40;;
5391;SDS011;2719;53.624;9.786;2023-12-22T03:03:33;10.00;;;0.40;;
5391;SDS011;2719;53.624;9.786;2023-12-22T03:05:59;1.70;;;0.50;;
5391;SDS011;2719;53.624;9.786;2023-12-22T03:08:26;4.83;;;0.50;;
5391;SDS011;2719;53.624;9.786;2023-12-22T03:10:52;2.60;;;0.40;;
5391;SDS011;2719;53.624;9.786;2023-12-22T03:13:20;4.43;;;0.50;;
5391;SDS011;2719;53.624;9.786;2023-12-22T03:15:47;3.10;;;0.47;;
5391;SDS011;2719;53.624;9.786;2023-12-22T03:18:13;2.70;;;0.40;;
5391;SDS011;2719;53.624;9.786;2023-12-22T03:20:40;4.33;;;0.57;;
5391;SDS011;2719;53.624;9.786;2023-12-22T03:23:07;10.97;;;0.70;;
5391;SDS011;2719;53.624;9.786;2023-12-22T03:25:33;4.17;;;0.70;;
5391;SDS011;2719;53.624;9.786;2023-12-22T03:28:00;11.70;;;0.80;;
5391;SDS011;2719;53.624;9.786;2023-12-22T03:30:28;5.40;;;0.50;;
5391;SDS011;2719;53.624;9.786;2023-12-22T03:32:55;3.57;;;0.50;;
5391;SDS011;2719;53.624;9.786;2023-12-22T03:35:21;7.40;;;0.60;;
5391;SDS011;2719;53.624;9.786;2023-12-22T03:37:48;6.40;;;0.60;;
5391;SDS011;2719;53.624;9.786;2023-12-22T03:40:15;4.20;;;0.60;;
5391;SDS011;2719;53.624;9.786;2023-12-22T03:42:41;11.70;;;1.33;;
5391;SDS011;2719;53.624;9.786;2023-12-22T03:45:08;11.00;;;1.00;;
5391;SDS011;2719;53.624;9.786;2023-12-22T03:47:36;9.20;;;0.63;;
5391;SDS011;2719;53.624;9.786;2023-12-22T03:50:03;20.73;;;0.50;;
5391;SDS011;2719;53.624;9.786;2023-12-22T03:52:30;9.53;;;0.90;;
5391;SDS011;2719;53.624;9.786;2023-12-22T03:54:56;20.30;;;1.70;;
5391;SDS011;2719;53.624;9.786;2023-12-22T03:57:23;9.70;;;0.90;;
5391;SDS011;2719;53.624;9.786;2023-12-22T03:59:50;14.37;;;1.10;;
5391;SDS011;2719;53.624;9.786;2023-12-22T04:02:16;9.57;;;0.83;;
5391;SDS011;2719;53.624;9.786;2023-12-22T04:04:44;19.40;;;1.10;;
5391;SDS011;2719;53.624;9.786;2023-12-22T04:07:11;7.90;;;0.90;;
5391;SDS011;2719;53.624;9.786;2023-12-22T04:09:38;11.60;;;1.00;;
5391;SDS011;2719;53.624;9.786;2023-12-22T04:12:04;12.83;;;1.17;;
5391;SDS011;2719;53.624;9.786;2023-12-22T04:14:31;19.03;;;2.30;;
5391;SDS011;2719;53.624;9.786;2023-12-22T04:16:58;6.63;;;0.80;;
5391;SDS011;2719;53.624;9.786;2023-12-22T04:19:25;13.17;;;1.33;;
5391;SDS011;2719;53.624;9.786;2023-12-22T04:21:53;9.03;;;1.37;;
5391;SDS011;2719;53.624;9.786;2023-12-22T04:24:19;13.50;;;1.00;;
5391;SDS011;2719;53.624;9.786;2023-12-22T04:26:46;18.67;;;1.67;;
5391;SDS011;2719;53.624;9.786;2023-12-22T04:29:13;11.83;;;0.90;;
5391;SDS011;2719;53.624;9.786;2023-12-22T04:31:40;13.20;;;1.57;;
5391;SDS011;2719;53.624;9.786;2023-12-22T04:34:06;8.10;;;1.00;;
5391;SDS011;2719;53.624;9.786;2023-12-22T04:36:33;9.27;;;0.80;;
5391;SDS011;2719;53.624;9.786;2023-12-22T04:39:02;16.10;;;0.80;;
5391;SDS011;2719;53.624;9.786;2023-12-22T04:41:28;8.47;;;0.90;;
5391;SDS011;2719;53.624;9.786;2023-12-22T04:43:55;7.13;;;0.70;;
5391;SDS011;2719;53.624;9.786;2023-12-22T04:46:22;16.10;;;1.10;;
5391;SDS011;2719;53.624;9.786;2023-12-22T04:48:48;13.43;;;0.93;;
5391;SDS011;2719;53.624;9.786;2023-12-22T04:51:15;5.27;;;0.60;;
5391;SDS011;2719;53.624;9.786;2023-12-22T04:53:41;17.20;;;1.10;;
5391;SDS011;2719;53.624;9.786;2023-12-22T04:56:09;11.50;;;1.67;;
5391;SDS011;2719;53.624;9.786;2023-12-22T04:58:36;27.03;;;1.77;;
5391;SDS011;2719;53.624;9.786;2023-12-22T05:01:03;20.50;;;1.63;;
5391;SDS011;2719;53.624;9.786;2023-12-22T05:03:29;16.57;;;1.63;;
5391;SDS011;2719;53.624;9.786;2023-12-22T05:05:56;11.03;;;1.10;;
5391;SDS011;2719;53.624;9.786;2023-12-22T05:08:22;10.53;;;0.90;;
5391;SDS011;2719;53.624;9.786;2023-12-22T05:10:49;8.03;;;0.70;;
5391;SDS011;2719;53.624;9.786;2023-12-22T05:13:17;12.80;;;0.90;;
5391;SDS011;2719;53.624;9.786;2023-12-22T05:15:44;11.37;;;1.17;;
5391;SDS011;2719;53.624;9.786;2023-12-22T05:18:10;6.00;;;1.00;;
5391;SDS011;2719;53.624;9.786;2023-12-22T05:20:37;13.07;;;1.63;;
5391;SDS011;2719;53.624;9.786;2023-12-22T05:23:03;14.27;;;1.40;;
5391;SDS011;2719;53.624;9.786;2023-12-22T05:25:30;12.00;;;1.00;;
5391;SDS011;2719;53.624;9.786;2023-12-22T05:27:57;13.37;;;1.23;;
5391;SDS011;2719;53.624;9.786;2023-12-22T05:30:24;9.77;;;0.73;;
5391;SDS011;2719;53.624;9.786;2023-12-22T05:32:51;17.90;;;0.97;;
5391;SDS011;2719;53.624;9.786;2023-12-22T05:35:19;14.87;;;1.30;;
5391;SDS011;2719;53.624;9.786;2023-12-22T05:37:46;14.67;;;1.40;;
5391;SDS011;2719;53.624;9.786;2023-12-22T05:40:13;10.50;;;0.90;;
5391;SDS011;2719;53.624;9.786;2023-12-22T05:42:40;6.00;;;0.73;;
5391;SDS011;2719;53.624;9.786;2023-12-22T05:45:07;6.03;;;0.80;;
5391;SDS011;2719;53.624;9.786;2023-12-22T05:47:37;11.03;;;1.10;;
5391;SDS011;2719;53.624;9.786;2023-12-22T05:50:04;12.10;;;1.53;;
5391;SDS011;2719;53.624;9.786;2023-12-22T05:52:31;4.30;;;0.60;;
5391;SDS011;2719;53.624;9.786;2023-12-22T05:54:58;4.33;;;0.50;;
5391;SDS011;2719;53.624;9.786;2023-12-22T05:57:24;12.40;;;0.93;;
5391;SDS011;2719;53.624;9.786;2023-12-22T05:59:51;11.70;;;0.60;;
5391;SDS011;2719;53.624;9.786;2023-12-22T06:02:18;9.80;;;0.70;;
5391;SDS011;2719;53.624;9.786;2023-12-22T06:04:46;4.57;;;0.80;;
5391;SDS011;2719;53.624;9.786;2023-12-22T06:07:13;11.70;;;1.23;;
5391;SDS011;2719;53.624;9.786;2023-12-22T06:09:39;10.70;;;1.10;;
5391;SDS011;2719;53.624;9.786;2023-12-22T06:12:06;9.63;;;1.07;;
5391;SDS011;2719;53.624;9.786;2023-12-22T06:14:33;4.47;;;0.77;;
5391;SDS011;2719;53.624;9.786;2023-12-22T06:17:00;4.43;;;0.63;;
5391;SDS011;2719;53.624;9.786;2023-12-22T06:19:27;9.10;;;1.60;;
5391;SDS011;2719;53.624;9.786;2023-12-22T06:21:56;6.47;;;1.20;;
5391;SDS011;2719;53.624;9.786;2023-12-22T06:24:25;16.23;;;1.10;;
5391;SDS011;2719;53.624;9.786;2023-12-22T06:26:51;11.67;;;1.53;;
5391;SDS011;2719;53.624;9.786;2023-12-22T06:29:18;9.67;;;1.77;;
5391;SDS011;2719;53.624;9.786;2023-12-22T06:31:44;20.80;;;1.10;;
5391;SDS011;2719;53.624;9.786;2023-12-22T06:34:15;18.37;;;2.03;;
5391;SDS011;2719;53.624;9.786;2023-12-22T06:36:42;14.33;;;1.33;;
5391;SDS011;2719;53.624;9.786;2023-12-22T06:39:10;16.63;;;2.13;;
5391;SDS011;2719;53.624;9.786;2023-12-22T06:41:37;21.33;;;1.80;;
5391;SDS011;2719;53.624;9.786;2023-12-22T06:44:03;18.20;;;2.07;;
5391;SDS011;2719;53.624;9.786;2023-12-22T06:46:30;15.90;;;1.77;;
5391;SDS011;2719;53.624;9.786;2023-12-22T06:48:57;24.33;;;3.47;;
5391;SDS011;2719;53.624;9.786;2023-12-22T06:51:24;25.83;;;4.03;;
5391;SDS011;2719;53.624;9.786;2023-12-22T06:53:52;13.07;;;2.70;;
5391;SDS011;2719;53.624;9.786;2023-12-22T06:56:21;19.40;;;2.97;;
5391;SDS011;2719;53.624;9.786;2023-12-22T06:58:49;15.80;;;2.33;;
5391;SDS011;2719;53.624;9.786;2023-12-22T07:01:17;24.57;;;1.90;;
5391;SDS011;2719;53.624;9.786;2023-12-22T07:03:46;21.20;;;2.60;;
5391;SDS011;2719;53.624;9.786;2023-12-22T07:06:13;19.27;;;2.23;;
5391;SDS011;2719;53.624;9.786;2023-12-22T07:08:40;25.50;;;2.20;;
5391;SDS011;2719;53.624;9.786;2023-12-22T07:11:07;10.33;;;1.97;;
5391;SDS011;2719;53.624;9.786;2023-12-22T07:13:35;15.70;;;2.23;;
5391;SDS011;2719;53.624;9.786;2023-12-22T07:16:02;13.03;;;2.30;;
5391;SDS011;2719;53.624;9.786;2023-12-22T07:18:29;24.93;;;2.20;;
5391;SDS011;2719;53.624;9.786;2023-12-22T07:20:56;20.80;;;2.20;;
5391;SDS011;2719;53.624;9.786;2023-12-22T07:23:22;19.03;;;3.57;;
5391;SDS011;2719;53.624;9.786;2023-12-22T07:25:48;25.57;;;2.93;;
5391;SDS011;2719;53.624;9.786;2023-12-22T07:28:15;20.30;;;1.60;;
5391;SDS011;2719;53.624;9.786;2023-12-22T07:30:43;15.90;;;2.40;;
5391;SDS011;2719;53.624;9.786;2023-12-22T07:33:10;10.83;;;1.83;;
5391;SDS011;2719;53.624;9.786;2023-12-22T07:35:36;27.13;;;2.73;;
5391;SDS011;2719;53.624;9.786;2023-12-22T07:38:03;14.20;;;1.77;;
5391;SDS011;2719;53.624;9.786;2023-12-22T07:40:29;19.20;;;1.73;;
5391;SDS011;2719;53.624;9.786;2023-12-22T07:42:56;11.63;;;1.20;;
5391;SDS011;2719;53.624;9.786;2023-12-22T07:45:23;8.10;;;1.20;;
5391;SDS011;2719;53.624;9.786;2023-12-22T07:47:51;17.43;;;1.00;;
5391;SDS011;2719;53.624;9.786;2023-12-22T07:50:18;12.27;;;1.00;;
5391;SDS011;2719;53.624;9.786;2023-12-22T07:52:46;13.70;;;0.90;;
5391;SDS011;2719;53.624;9.786;2023-12-22T07:55:13;13.13;;;1.07;;
5391;SDS011;2719;53.624;9.786;2023-12-22T07:57:39;19.30;;;1.27;;
5391;SDS011;2719;53.624;9.786;2023-12-22T08:00:07;20.93;;;1.57;;
5391;SDS011;2719;53.624;9.786;2023-12-22T08:02:35;12.27;;;1.43;;
5391;SDS011;2719;53.624;9.786;2023-12-22T08:05:03;27.33;;;2.07;;
5391;SDS011;2719;53.624;9.786;2023-12-22T08:07:30;9.50;;;1.33;;
5391;SDS011;2719;53.624;9.786;2023-12-22T08:09:57;18.20;;;1.70;;
5391;SDS011;2719;53.624;9.786;2023-12-22T08:12:23;11.60;;;1.20;;
5391;SDS011;2719;53.624;9.786;2023-12-22T08:14:51;9.70;;;0.73;;
5391;SDS011;2719;53.624;9.786;2023-12-22T08:17:17;13.27;;;1.37;;
5391;SDS011;2719;53.624;9.786;2023-12-22T08:19:44;17.50;;;1.87;;
5391;SDS011;2719;53.624;9.786;2023-12-22T08:22:12;19.87;;;1.47;;
5391;SDS011;2719;53.624;9.786;2023-12-22T08:24:39;12.50;;;1.27;;
5391;SDS011;2719;53.624;9.786;2023-12-22T08:27:06;19.27;;;1.73;;
5391;SDS011;2719;53.624;9.786;2023-12-22T08:29:32;10.37;;;2.10;;
5391;SDS011;2719;53.624;9.786;2023-12-22T08:31:59;16.23;;;2.47;;
5391;SDS011;2719;53.624;9.786;2023-12-22T08:34:26;16.07;;;2.23;;
5391;SDS011;2719;53.624;9.786;2023-12-22T08:36:53;19.73;;;1.60;;
5391;SDS011;2719;53.624;9.786;2023-12-22T08:39:21;10.50;;;1.37;;
5391;SDS011;2719;53.624;9.786;2023-12-22T08:41:49;8.20;;;1.30;;
5391;SDS011;2719;53.624;9.786;2023-12-22T08:44:15;12.43;;;1.23;;
5391;SDS011;2719;53.624;9.786;2023-12-22T08:46:42;20.00;;;1.20;;
5391;SDS011;2719;53.624;9.786;2023-12-22T08:49:09;9.20;;;0.70;;
5391;SDS011;2719;53.624;9.786;2023-12-22T08:51:35;9.47;;;0.63;;
5391;SDS011;2719;53.624;9.786;2023-12-22T08:54:02;2.50;;;0.70;;
5391;SDS011;2719;53.624;9.786;2023-12-22T08:56:30;8.70;;;0.80;;
5391;SDS011;2719;53.624;9.786;2023-12-22T08:58:57;2.87;;;0.60;;
5391;SDS011;2719;53.624;9.786;2023-12-22T09:01:24;11.90;;;1.10;;
5391;SDS011;2719;53.624;9.786;2023-12-22T09:03:51;7.60;;;1.40;;
5391;SDS011;2719;53.624;9.786;2023-12-22T09:06:18;10.20;;;1.00;;
5391;SDS011;2719;53.624;9.786;2023-12-22T09:08:46;8.63;;;0.83;;
5391;SDS011;2719;53.624;9.786;2023-12-22T09:11:13;6.60;;;0.83;;
5391;SDS011;2719;53.624;9.786;2023-12-22T09:13:43;10.77;;;1.00;;
5391;SDS011;2719;53.624;9.786;2023-12-22T09:16:10;4.50;;;0.80;;
5391;SDS011;2719;53.624;9.786;2023-12-22T09:18:40;15.20;;;1.33;;
5391;SDS011;2719;53.624;9.786;2023-12-22T09:21:07;12.07;;;1.23;;
5391;SDS011;2719;53.624;9.786;2023-12-22T09:23:33;13.67;;;1.43;;
5391;SDS011;2719;53.624;9.786;2023-12-22T09:26:00;11.50;;;1.03;;
5391;SDS011;2719;53.624;9.786;2023-12-22T09:28:27;6.57;;;0.83;;
5391;SDS011;2719;53.624;9.786;2023-12-22T09:30:54;11.00;;;1.00;;
5391;SDS011;2719;53.624;9.786;2023-12-22T09:33:21;14.03;;;0.90;;
5391;SDS011;2719;53.624;9.786;2023-12-22T09:35:48;8.47;;;1.33;;
5391;SDS011;2719;53.624;9.786;2023-12-22T09:38:16;12.50;;;0.87;;
5391;SDS011;2719;53.624;9.786;2023-12-22T09:40:42;15.70;;;0.77;;
5391;SDS011;2719;53.624;9.786;2023-12-22T09:43:09;19.70;;;1.33;;
5391;SDS011;2719;53.624;9.786;2023-12-22T09:45:40;16.67;;;2.03;;
5391;SDS011;2719;53.624;9.786;2023-12-22T09:48:09;8.07;;;0.90;;
5391;SDS011;2719;53.624;9.786;2023-12-22T09:50:41;12.70;;;2.20;;
5391;SDS011;2719;53.624;9.786;2023-12-22T09:53:09;21.57;;;1.67;;
5391;SDS011;2719;53.624;9.786;2023-12-22T09:55:38;13.70;;;1.40;;
5391;SDS011;2719;53.624;9.786;2023-12-22T09:58:06;10.83;;;1.53;;
5391;SDS011;2719;53.624;9.786;2023-12-22T10:00:36;15.37;;;1.63;;
5391;SDS011;2719;53.624;9.786;2023-12-22T10:03:04;25.13;;;2.03;;
5391;SDS011;2719;53.624;9.786;2023-12-22T10:05:33;25.93;;;2.07;;
5391;SDS011;2719;53.624;9.786;2023-12-22T10:08:00;16.47;;;1.30;;
5391;SDS011;2719;53.624;9.786;2023-12-22T10:10:28;9.00;;;1.77;;
5391;SDS011;2719;53.624;9.786;2023-12-22T10:12:55;20.57;;;1.73;;
5391;SDS011;2719;53.624;9.786;2023-12-22T10:15:23;11.03;;;1.30;;
5391;SDS011;2719;53.624;9.786;2023-12-22T10:17:49;17.67;;;3.50;;
5391;SDS011;2719;53.624;9.786;2023-12-22T10:20:17;12.63;;;2.10;;
5391;SDS011;2719;53.624;9.786;2023-12-22T10:22:45;20.37;;;1.80;;
5391;SDS011;2719;53.624;9.786;2023-12-22T10:25:14;20.77;;;2.53;;
5391;SDS011;2719;53.624;9.786;2023-12-22T10:27:42;20.57;;;2.27;;
5391;SDS011;2719;53.624;9.786;2023-12-22T10:30:09;20.70;;;1.90;;
5391;SDS011;2719;53.624;9.786;2023-12-22T10:32:39;14.63;;;2.30;;
5391;SDS011;2719;53.624;9.786;2023-12-22T10:35:07;25.47;;;1.77;;
5391;SDS011;2719;53.624;9.786;2023-12-22T10:37:34;20.77;;;2.60;;
5391;SDS011;2719;53.624;9.786;2023-12-22T10:40:04;20.83;;;2.40;;
5391;SDS011;2719;53.624;9.786;2023-12-22T10:42:31;13.13;;;1.20;;
5391;SDS011;2719;53.624;9.786;2023-12-22T10:44:58;14.57;;;2.07;;
5391;SDS011;2719;53.624;9.786;2023-12-22T10:47:25;13.80;;;1.83;;
5391;SDS011;2719;53.624;9.786;2023-12-22T10:49:52;17.30;;;2.60;;
5391;SDS011;2719;53.624;9.786;2023-12-22T10:52:19;19.00;;;2.50;;
5391;SDS011;2719;53.624;9.786;2023-12-22T10:54:46;7.10;;;1.00;;
5391;SDS011;2719;53.624;9.786;2023-12-22T10:57:18;13.33;;;1.40;;
5391;SDS011;2719;53.624;9.786;2023-12-22T10:59:45;14.03;;;2.20;;
5391;SDS011;2719;53.624;9.786;2023-12-22T11:02:14;13.00;;;0.87;;
5391;SDS011;2719;53.624;9.786;2023-12-22T11:04:43;14.00;;;1.73;;
5391;SDS011;2719;53.624;9.786;2023-12-22T11:07:13;16.93;;;1.70;;
5391;SDS011;2719;53.624;9.786;2023-12-22T11:09:42;16.63;;;1.33;;
5391;SDS011;2719;53.624;9.786;2023-12-22T11:12:13;27.53;;;1.23;;
5391;SDS011;2719;53.624;9.786;2023-12-22T11:14:42;8.90;;;0.90;;
5391;SDS011;2719;53.624;9.786;2023-12-22T11:17:09;10.40;;;0.67;;
5391;SDS011;2719;53.624;9.786;2023-12-22T11:19:37;4.30;;;0.67;;
5391;SDS011;2719;53.624;9.786;2023-12-22T11:22:06;8.13;;;1.13;;
5391;SDS011;2719;53.624;9.786;2023-12-22T11:24:35;14.77;;;1.93;;
5391;SDS011;2719;53.624;9.786;2023-12-22T11:27:03;11.00;;;1.10;;
5391;SDS011;2719;53.624;9.786;2023-12-22T11:29:31;13.17;;;1.10;;
5391;SDS011;2719;53.624;9.786;2023-12-22T11:32:01;12.10;;;0.93;;
5391;SDS011;2719;53.624;9.786;2023-12-22T11:34:31;5.47;;;0.70;;
5391;SDS011;2719;53.624;9.786;2023-12-22T11:37:02;8.33;;;0.90;;
5391;SDS011;2719;53.624;9.786;2023-12-22T11:39:30;9.00;;;0.73;;
5391;SDS011;2719;53.624;9.786;2023-12-22T11:41:56;11.40;;;1.47;;
5391;SDS011;2719;53.624;9.786;2023-12-22T11:44:24;13.27;;;1.23;;
5391;SDS011;2719;53.624;9.786;2023-12-22T11:47:03;15.27;;;1.43;;
5391;SDS011;2719;53.624;9.786;2023-12-22T11:49:31;7.23;;;0.80;;
5391;SDS011;2719;53.624;9.786;2023-12-22T11:51:59;15.27;;;1.63;;
5391;SDS011;2719;53.624;9.786;2023-12-22T11:54:44;22.63;;;1.53;;
5391;SDS011;2719;53.624;9.786;2023-12-22T11:57:33;9.23;;;1.17;;
5391;SDS011;2719;53.624;9.786;2023-12-22T12:00:04;22.53;;;1.13;;
5391;SDS011;2719;53.624;9.786;2023-12-22T12:02:34;15.73;;;1.50;;
5391;SDS011;2719;53.624;9.786;2023-12-22T12:05:02;15.77;;;2.40;;
5391;SDS011;2719;53.624;9.786;2023-12-22T12:07:36;13.87;;;1.20;;
5391;SDS011;2719;53.624;9.786;2023-12-22T12:10:09;12.23;;;2.03;;
5391;SDS011;2719;53.624;9.786;2023-12-22T12:12:37;16.50;;;1.27;;
5391;SDS011;2719;53.624;9.786;2023-12-22T12:15:07;16.23;;;1.43;;
5391;SDS011;2719;53.624;9.786;2023-12-22T12:17:40;26.40;;;1.77;;
5391;SDS011;2719;53.624;9.786;2023-12-22T12:20:08;22.50;;;2.10;;
5391;SDS011;2719;53.624;9.786;2023-12-22T12:22:35;18.97;;;2.90;;
5391;SDS011;2719;53.624;9.786;2023-12-22T12:25:06;22.50;;;3.07;;
5391;SDS011;2719;53.624;9.786;2023-12-22T12:27:34;15.53;;;1.60;;
5391;SDS011;2719;53.624;9.786;2023-12-22T12:30:06;12.87;;;1.60;;
5391;SDS011;2719;53.624;9.786;2023-12-22T12:32:34;27.17;;;2.13;;
5391;SDS011;2719;53.624;9.786;2023-12-22T12:35:03;14.17;;;2.40;;
5391;SDS011;2719;53.624;9.786;2023-12-22T12:37:31;15.77;;;1.80;;
5391;SDS011;2719;53.624;9.786;2023-12-22T12:39:58;11.43;;;1.57;;
5391;SDS011;2719;53.624;9.786;2023-12-22T12:42:26;26.30;;;3.10;;
5391;SDS011;2719;53.624;9.786;2023-12-22T12:44:55;26.20;;;2.30;;
5391;SDS011;2719;53.624;9.786;2023-12-22T12:47:22;17.93;;;1.43;;
5391;SDS011;2719;53.624;9.786;2023-12-22T12:49:56;16.57;;;1.67;;
5391;SDS011;2719;53.624;9.786;2023-12-22T12:52:25;17.10;;;1.60;;
5391;SDS011;2719;53.624;9.786;2023-12-22T12:54:52;17.07;;;1.70;;
5391;SDS011;2719;53.624;9.786;2023-12-22T12:57:19;19.07;;;1.70;;
5391;SDS011;2719;53.624;9.786;2023-12-22T12:59:46;18.23;;;1.40;;
5391;SDS011;2719;53.624;9.786;2023-12-22T13:02:13;10.63;;;1.00;;
5391;SDS011;2719;53.624;9.786;2023-12-22T13:04:41;6.03;;;0.97;;
5391;SDS011;2719;53.624;9.786;2023-12-22T13:07:08;17.17;;;1.83;;
5391;SDS011;2719;53.624;9.786;2023-12-22T13:09:39;15.10;;;1.90;;
5391;SDS011;2719;53.624;9.786;2023-12-22T13:12:07;11.73;;;1.23;;
5391;SDS011;2719;53.624;9.786;2023-12-22T13:14:34;11.00;;;2.00;;
5391;SDS011;2719;53.624;9.786;2023-12-22T13:17:00;11.10;;;1.00;;
5391;SDS011;2719;53.624;9.786;2023-12-22T13:19:27;8.63;;;0.97;;
5391;SDS011;2719;53.624;9.786;2023-12-22T13:21:54;18.57;;;2.20;;
5391;SDS011;2719;53.624;9.786;2023-12-22T13:24:22;7.73;;;1.23;;
5391;SDS011;2719;53.624;9.786;2023-12-22T13:26:59;8.97;;;1.00;;
5391;SDS011;2719;53.624;9.786;2023-12-22T13:29:27;10.40;;;1.17;;
5391;SDS011;2719;53.624;9.786;2023-12-22T13:31:54;20.57;;;1.20;;
5391;SDS011;2719;53.624;9.786;2023-12-22T13:34:22;10.33;;;1.43;;
5391;SDS011;2719;53.624;9.786;2023-12-22T13:36:49;19.20;;;2.80;;
5391;SDS011;2719;53.624;9.786;2023-12-22T13:39:16;16.60;;;1.07;;
5391;SDS011;2719;53.624;9.786;2023-12-22T13:41:43;22.23;;;2.63;;
5391;SDS011;2719;53.624;9.786;2023-12-22T13:44:12;10.20;;;1.50;;
5391;SDS011;2719;53.624;9.786;2023-12-22T13:46:39;10.00;;;1.30;;
5391;SDS011;2719;53.624;9.786;2023-12-22T13:49:07;17.57;;;2.57;;
5391;SDS011;2719;53.624;9.786;2023-12-22T13:51:38;18.77;;;2.07;;
5391;SDS011;2719;53.624;9.786;2023-12-22T13:54:06;13.20;;;1.23;;
5391;SDS011;2719;53.624;9.786;2023-12-22T13:56:33;12.13;;;1.73;;
5391;SDS011;2719;53.624;9.786;2023-12-22T13:59:01;9.23;;;1.13;;
5391;SDS011;2719;53.624;9.786;2023-12-22T14:01:29;20.70;;;1.20;;
5391;SDS011;2719;53.624;9.786;2023-12-22T14:03:56;17.70;;;1.93;;
5391;SDS011;2719;53.624;9.786;2023-12-22T14:06:23;9.57;;;2.20;;
5391;SDS011;2719;53.624;9.786;2023-12-22T14:08:50;9.93;;;1.10;;
5391;SDS011;2719;53.624;9.786;2023-12-22T14:11:17;22.83;;;1.00;;
5391;SDS011;2719;53.624;9.786;2023-12-22T14:13:43;16.20;;;1.30;;
5391;SDS011;2719;53.624;9.786;2023-12-22T14:16:10;10.13;;;1.13;;
5391;SDS011;2719;53.624;9.786;2023-12-22T14:18:38;11.60;;;1.60;;
5391;SDS011;2719;53.624;9.786;2023-12-22T14:21:05;9.53;;;1.00;;
5391;SDS011;2719;53.624;9.786;2023-12-22T14:23:31;17.63;;;1.63;;
5391;SDS011;2719;53.624;9.786;2023-12-22T14:25:58;10.10;;;1.67;;
5391;SDS011;2719;53.624;9.786;2023-12-22T14:28:25;12.47;;;1.07;;
5391;SDS011;2719;53.624;9.786;2023-12-22T14:30:52;7.27;;;0.93;;
5391;SDS011;2719;53.624;9.786;2023-12-22T14:33:19;11.80;;;1.20;;
5391;SDS011;2719;53.624;9.786;2023-12-22T14:35:47;7.80;;;1.87;;
5391;SDS011;2719;53.624;9.786;2023-12-22T14:38:13;8.90;;;1.57;;
5391;SDS011;2719;53.624;9.786;2023-12-22T14:40:40;12.53;;;2.20;;
5391;SDS011;2719;53.624;9.786;2023-12-22T14:43:06;7.20;;;1.90;;
5391;SDS011;2719;53.624;9.786;2023-12-22T14:45:33;13.20;;;1.20;;
5391;SDS011;2719;53.624;9.786;2023-12-22T14:48:00;22.27;;;1.50;;
5391;SDS011;2719;53.624;9.786;2023-12-22T14:50:26;6.60;;;1.37;;
5391;SDS011;2719;53.624;9.786;2023-12-22T14:52:54;5.40;;;0.70;;
5391;SDS011;2719;53.624;9.786;2023-12-22T14:55:21;12.27;;;1.67;;
5391;SDS011;2719;53.624;9.786;2023-12-22T14:57:47;11.27;;;1.00;;
5391;SDS011;2719;53.624;9.786;2023-12-22T15:00:14;14.53;;;1.20;;
5391;SDS011;2719;53.624;9.786;2023-12-22T15:02:42;7.20;;;0.93;;
5391;SDS011;2719;53.624;9.786;2023-12-22T15:05:08;11.30;;;0.70;;
5391;SDS011;2719;53.624;9.786;2023-12-22T15:07:35;11.90;;;1.20;;